Terminal Aerodrome Forecast
Issued by NWS

Home | Current Version | Previous Version | Text Only | Print | Product List | Glossary On
Versions: 1 2 3 4 5 6 7 8 9 10 11 12 13 14 15 16
343
FTUS46 KEKA 191732
TAFUKI
TAF
KUKI 191732Z 1918/2018 33005KT P6SM FEW050
     FM192000 31010G15KT P6SM SCT050
     FM200300 33005KT P6SM FEW250
     FM200700 VRB03KT P6SM FEW250=

USA.gov is the U.S. government's official web portal to all federal, state and local government web resources and services.